Time;durP1;ratioP1;P1;durP2;ratioP2;P2;SDS_P1;SDS_P2;PMS_P1;PMS_P2;Temp;Humidity;BMP_temperature;BMP_pressure;BME280_temperature;BME280_humidity;BME280_pressure;Samples;Min_cycle;Max_cycle;Signal;HPM_P1;HPM_P2
2021/01/19 00:01:58;;;;;;;31.85;20.77;;;4.50;99.90;;;;;;5028627;28;20090;-45
2021/01/19 00:04:24;;;;;;;34.65;19.75;;;4.50;99.90;;;;;;5028107;28;20029;-43
2021/01/19 00:06:49;;;;;;;31.73;19.73;;;4.50;99.90;;;;;;5028464;28;20090;-45
2021/01/19 00:09:15;;;;;;;39.03;21.77;;;4.50;99.90;;;;;;5028540;28;20061;-44
2021/01/19 00:11:40;;;;;;;36.83;20.33;;;4.50;99.90;;;;;;5028269;28;20191;-45
2021/01/19 00:14:05;;;;;;;36.70;21.13;;;4.50;99.90;;;;;;5028322;28;20378;-45
2021/01/19 00:16:31;;;;;;;34.88;21.98;;;4.40;99.90;;;;;;5028235;28;20034;-44
2021/01/19 00:18:56;;;;;;;34.28;20.33;;;4.40;99.90;;;;;;5027145;28;20083;-44
2021/01/19 00:21:22;;;;;;;31.83;20.25;;;4.40;99.90;;;;;;5027987;28;20033;-43
2021/01/19 00:23:47;;;;;;;39.10;21.00;;;4.50;99.90;;;;;;5028761;28;20500;-43
2021/01/19 00:26:13;;;;;;;34.15;20.30;;;4.50;99.90;;;;;;5027718;28;20091;-43
2021/01/19 00:28:39;;;;;;;30.58;20.20;;;4.50;99.90;;;;;;5027367;28;20022;-44
2021/01/19 00:31:05;;;;;;;32.10;19.80;;;4.50;99.90;;;;;;5028688;28;20200;-44
2021/01/19 00:33:30;;;;;;;31.30;19.02;;;4.40;99.90;;;;;;5027339;28;20374;-46
2021/01/19 00:35:56;;;;;;;27.63;19.25;;;4.50;99.90;;;;;;5027809;28;20025;-44
2021/01/19 00:38:21;;;;;;;28.70;18.50;;;4.50;99.90;;;;;;5028433;28;20400;-43
2021/01/19 00:40:48;;;;;;;31.05;18.15;;;4.50;99.90;;;;;;5028421;28;20029;-45
2021/01/19 00:43:14;;;;;;;34.30;19.40;;;4.50;99.90;;;;;;5026574;28;20029;-45
2021/01/19 00:45:39;;;;;;;34.50;19.83;;;4.50;99.90;;;;;;5027592;28;20030;-43
2021/01/19 00:48:05;;;;;;;33.97;18.98;;;4.50;99.90;;;;;;5028349;28;20036;-46
2021/01/19 00:50:31;;;;;;;27.60;18.27;;;4.60;99.90;;;;;;5028244;28;20029;-45
2021/01/19 00:52:56;;;;;;;32.40;20.10;;;4.50;99.90;;;;;;5027691;28;20037;-43
2021/01/19 00:55:22;;;;;;;33.53;20.27;;;4.50;99.90;;;;;;5026914;28;20546;-44
2021/01/19 00:57:47;;;;;;;33.65;20.23;;;4.50;99.90;;;;;;5027594;28;20033;-45
2021/01/19 01:00:14;;;;;;;29.13;18.55;;;4.60;99.90;;;;;;5028462;28;20537;-45
2021/01/19 01:02:40;;;;;;;33.97;19.05;;;4.50;99.90;;;;;;5028445;28;20040;-45
2021/01/19 01:05:07;;;;;;;27.42;17.90;;;4.50;99.90;;;;;;5026410;28;20030;-43
2021/01/19 01:07:37;;;;;;;34.22;18.27;;;4.50;99.90;;;;;;5028137;28;20029;-44
2021/01/19 01:10:04;;;;;;;33.23;20.03;;;4.50;99.90;;;;;;5027066;28;20471;-45
2021/01/19 01:12:29;;;;;;;28.08;18.73;;;4.50;99.90;;;;;;5028000;28;20263;-44
2021/01/19 01:14:56;;;;;;;32.50;18.95;;;4.50;99.90;;;;;;5027509;28;20021;-43
2021/01/19 01:17:21;;;;;;;29.85;19.67;;;4.50;99.90;;;;;;5026686;28;20079;-44
2021/01/19 01:19:47;;;;;;;36.25;18.25;;;4.40;99.90;;;;;;5027770;28;20041;-44
2021/01/19 01:22:12;;;;;;;28.65;18.40;;;4.40;99.90;;;;;;5027893;28;20033;-45
2021/01/19 01:24:38;;;;;;;30.05;17.95;;;4.50;99.90;;;;;;5027324;28;20021;-46
2021/01/19 01:27:04;;;;;;;32.03;18.80;;;4.40;99.90;;;;;;5027688;28;20121;-43
2021/01/19 01:29:29;;;;;;;31.80;18.52;;;4.50;99.90;;;;;;5027839;28;20045;-44
2021/01/19 01:31:55;;;;;;;31.38;17.40;;;4.50;99.90;;;;;;5027831;28;20487;-43
2021/01/19 01:34:20;;;;;;;26.70;18.33;;;4.50;99.90;;;;;;5030047;28;20023;-43
2021/01/19 01:36:47;;;;;;;32.20;17.60;;;4.50;99.90;;;;;;5031073;28;20403;-45
2021/01/19 01:39:13;;;;;;;32.05;17.30;;;4.50;99.90;;;;;;5031564;28;20537;-45
2021/01/19 01:41:38;;;;;;;26.00;17.77;;;4.50;99.90;;;;;;5031129;28;20037;-44
2021/01/19 01:44:04;;;;;;;24.70;16.45;;;4.50;99.90;;;;;;5031472;28;20037;-44
2021/01/19 01:46:33;;;;;;;26.80;19.13;;;4.40;99.90;;;;;;5030736;28;20075;-43
2021/01/19 01:49:01;;;;;;;27.38;16.85;;;4.50;99.90;;;;;;5031567;28;20055;-44
2021/01/19 01:51:28;;;;;;;29.13;17.25;;;4.50;99.90;;;;;;5029859;28;20077;-46
2021/01/19 01:53:56;;;;;;;29.65;17.33;;;4.50;99.90;;;;;;5031027;28;20048;-44
2021/01/19 01:56:21;;;;;;;27.58;17.40;;;4.50;99.90;;;;;;5029843;28;20467;-46
2021/01/19 01:58:47;;;;;;;29.30;16.65;;;4.50;99.90;;;;;;5029695;28;20117;-43
2021/01/19 02:01:12;;;;;;;26.23;16.38;;;4.40;99.90;;;;;;5031005;28;20280;-44
2021/01/19 02:03:38;;;;;;;23.98;15.30;;;4.40;99.90;;;;;;5028972;28;20294;-43
2021/01/19 02:06:05;;;;;;;24.60;15.57;;;4.40;99.90;;;;;;5030098;28;20042;-43
2021/01/19 02:08:57;;;;;;;25.50;15.13;;;4.40;99.90;;;;;;5030286;28;20057;-44
2021/01/19 02:11:37;;;;;;;24.85;15.55;;;4.50;99.90;;;;;;5030587;28;20029;-45
2021/01/19 02:14:11;;;;;;;29.48;17.05;;;4.40;99.90;;;;;;5030789;28;20433;-45
2021/01/19 02:17:01;;;;;;;26.95;17.98;;;4.30;99.90;;;;;;5030067;28;20069;-44
2021/01/19 02:19:48;;;;;;;21.10;11.98;;;4.30;99.90;;;;;;5030499;28;20037;-43
2021/01/19 02:22:58;;;;;;;25.10;15.80;;;4.30;99.90;;;;;;5030370;28;20423;-43
2021/01/19 02:25:59;;;;;;;27.42;15.52;;;4.30;99.90;;;;;;5029860;28;20017;-44
2021/01/19 02:28:42;;;;;;;22.40;14.23;;;4.20;99.90;;;;;;5036498;28;20037;-46
2021/01/19 02:31:32;;;;;;;25.40;14.68;;;4.20;99.90;;;;;;5030526;28;20025;-43
2021/01/19 02:34:16;;;;;;;24.25;14.27;;;4.10;99.90;;;;;;5030153;28;20018;-44
2021/01/19 02:37:06;;;;;;;25.40;15.20;;;4.10;99.90;;;;;;5029695;28;20441;-46
2021/01/19 02:39:55;;;;;;;28.88;15.57;;;4.10;99.90;;;;;;5030268;28;20025;-44
2021/01/19 02:42:26;;;;;;;25.50;14.73;;;4.10;99.90;;;;;;5029962;28;20475;-43
2021/01/19 02:44:54;;;;;;;22.58;14.07;;;4.10;99.90;;;;;;5027867;28;20033;-43
2021/01/19 02:47:19;;;;;;;23.23;15.10;;;4.10;99.90;;;;;;5029949;28;20026;-42
2021/01/19 02:49:45;;;;;;;29.67;14.57;;;4.10;99.90;;;;;;5029942;28;20037;-43
2021/01/19 02:52:15;;;;;;;23.27;13.88;;;4.00;99.90;;;;;;5030144;28;20165;-43
2021/01/19 02:54:42;;;;;;;23.17;14.70;;;4.10;99.90;;;;;;5029381;28;20036;-43
2021/01/19 02:57:42;;;;;;;24.00;14.55;;;4.10;99.90;;;;;;5029542;28;20029;-44
2021/01/19 03:00:16;;;;;;;27.05;16.33;;;4.00;99.90;;;;;;5029667;28;20030;-45
2021/01/19 03:02:48;;;;;;;23.85;14.05;;;4.10;99.90;;;;;;5028874;28;20395;-44
2021/01/19 03:05:15;;;;;;;24.35;14.77;;;4.00;99.90;;;;;;5029201;28;20060;-44
2021/01/19 03:07:44;;;;;;;21.65;13.73;;;4.00;99.90;;;;;;5029777;28;20073;-44
2021/01/19 03:10:12;;;;;;;26.98;13.85;;;4.00;99.90;;;;;;5029391;28;20022;-44
2021/01/19 03:12:41;;;;;;;22.98;13.75;;;4.00;99.90;;;;;;5029279;28;20535;-46
2021/01/19 03:15:07;;;;;;;22.50;13.48;;;4.00;99.90;;;;;;5029135;28;20257;-43
2021/01/19 03:17:33;;;;;;;23.92;13.68;;;4.00;99.90;;;;;;5029754;28;20049;-45
2021/01/19 03:19:58;;;;;;;23.63;12.63;;;4.00;99.90;;;;;;5029324;28;20565;-46
2021/01/19 03:22:23;;;;;;;19.92;12.20;;;3.90;99.90;;;;;;5028059;28;20034;-45
2021/01/19 03:24:49;;;;;;;20.48;12.45;;;4.00;99.90;;;;;;5028990;28;20116;-42
2021/01/19 03:27:14;;;;;;;24.60;12.43;;;4.00;99.90;;;;;;5028857;28;20459;-45
2021/01/19 03:29:40;;;;;;;22.05;12.50;;;4.00;99.90;;;;;;5027742;28;20021;-45
2021/01/19 03:32:05;;;;;;;22.48;12.95;;;3.90;99.90;;;;;;5029409;28;20024;-44
2021/01/19 03:34:33;;;;;;;21.33;11.88;;;3.90;99.90;;;;;;5027330;28;20497;-44
2021/01/19 03:36:58;;;;;;;22.08;13.10;;;3.90;99.90;;;;;;5029432;28;20029;-47
2021/01/19 03:39:24;;;;;;;20.52;12.05;;;3.90;99.90;;;;;;5027714;28;20041;-44
2021/01/19 03:41:50;;;;;;;17.77;11.10;;;4.00;99.90;;;;;;5028814;28;20451;-43
2021/01/19 03:44:21;;;;;;;22.10;12.07;;;4.00;99.90;;;;;;5028915;28;20648;-44
2021/01/19 03:46:47;;;;;;;17.88;10.95;;;4.00;99.90;;;;;;5028823;28;20025;-43
2021/01/19 03:49:12;;;;;;;14.93;10.32;;;4.00;99.90;;;;;;5027934;28;20079;-43
2021/01/19 03:51:38;;;;;;;15.80;10.60;;;4.00;99.90;;;;;;5028813;28;20021;-43
2021/01/19 03:54:04;;;;;;;15.80;10.68;;;4.00;99.90;;;;;;5029117;28;20068;-44
2021/01/19 03:56:30;;;;;;;15.10;10.25;;;4.00;99.90;;;;;;5026386;28;20025;-44
2021/01/19 03:58:55;;;;;;;16.48;10.50;;;4.00;99.90;;;;;;5028312;28;20455;-43
2021/01/19 04:01:21;;;;;;;19.48;10.80;;;4.00;99.90;;;;;;5028567;28;20479;-43
2021/01/19 04:03:46;;;;;;;18.95;10.98;;;4.10;99.90;;;;;;5028041;28;20030;-45
2021/01/19 04:06:12;;;;;;;18.00;11.32;;;4.10;99.90;;;;;;5026668;28;20034;-44
2021/01/19 04:08:38;;;;;;;17.17;11.07;;;4.10;99.90;;;;;;5028748;28;20025;-44
2021/01/19 04:11:04;;;;;;;18.23;11.02;;;4.10;99.90;;;;;;5028837;28;20028;-45
2021/01/19 04:13:30;;;;;;;19.30;11.45;;;4.10;99.90;;;;;;5028674;28;20347;-44
2021/01/19 04:15:56;;;;;;;20.33;11.10;;;4.00;99.90;;;;;;5028288;28;20109;-42
2021/01/19 04:18:22;;;;;;;16.58;10.18;;;4.00;99.90;;;;;;5028820;28;20029;-46
2021/01/19 04:20:48;;;;;;;18.67;10.25;;;4.00;99.90;;;;;;5027796;28;20552;-44
2021/01/19 04:23:16;;;;;;;16.30;10.60;;;4.00;99.90;;;;;;5028678;28;20025;-44
2021/01/19 04:25:46;;;;;;;16.83;10.73;;;4.00;99.90;;;;;;5027428;28;20714;-43
2021/01/19 04:28:12;;;;;;;19.17;9.77;;;4.00;99.90;;;;;;5028564;28;20112;-43
2021/01/19 04:30:39;;;;;;;16.55;10.32;;;4.00;99.90;;;;;;5028408;28;20316;-44
2021/01/19 04:33:05;;;;;;;15.30;10.13;;;4.10;99.90;;;;;;5028768;28;20021;-45
2021/01/19 04:35:31;;;;;;;15.50;10.30;;;4.10;99.90;;;;;;5027746;28;20025;-47
2021/01/19 04:37:56;;;;;;;14.00;9.88;;;4.10;99.90;;;;;;5028314;28;20083;-47
2021/01/19 04:40:22;;;;;;;16.33;9.38;;;4.10;99.90;;;;;;5026395;28;20055;-44
2021/01/19 04:42:48;;;;;;;13.32;8.73;;;4.10;99.90;;;;;;5027510;28;20084;-45
2021/01/19 04:45:14;;;;;;;16.58;8.52;;;4.10;99.90;;;;;;5027115;28;20217;-44
2021/01/19 04:47:40;;;;;;;13.57;8.95;;;4.10;99.90;;;;;;5028022;28;20026;-43
2021/01/19 04:50:08;;;;;;;14.35;8.77;;;4.10;99.90;;;;;;5027987;28;20083;-45
2021/01/19 04:52:34;;;;;;;12.38;8.25;;;4.20;99.90;;;;;;5027908;28;20368;-46
2021/01/19 04:55:22;;;;;;;15.48;8.80;;;4.20;99.90;;;;;;5027218;28;20064;-43
2021/01/19 04:58:00;;;;;;;16.23;8.02;;;4.10;99.90;;;;;;5026372;28;20022;-44
2021/01/19 05:00:33;;;;;;;13.07;8.13;;;4.10;99.90;;;;;;5026439;28;20097;-44
2021/01/19 05:03:12;;;;;;;10.95;7.50;;;4.10;99.90;;;;;;5032452;28;20018;-44
2021/01/19 05:05:38;;;;;;;9.07;7.20;;;4.10;99.90;;;;;;5024089;28;20204;-47
2021/01/19 05:08:16;;;;;;;12.30;6.90;;;4.10;99.90;;;;;;5030070;28;20105;-43
2021/01/19 05:11:19;;;;;;;11.50;7.00;;;4.10;99.90;;;;;;5031709;28;20079;-43
2021/01/19 05:13:56;;;;;;;10.25;7.00;;;4.20;99.90;;;;;;5031707;28;20029;-44
2021/01/19 05:16:28;;;;;;;9.80;7.07;;;4.20;99.90;;;;;;5031412;28;20031;-45
2021/01/19 05:18:54;;;;;;;12.02;7.35;;;4.20;99.90;;;;;;5031872;28;20060;-45
2021/01/19 05:21:20;;;;;;;12.98;7.47;;;4.20;99.90;;;;;;5031583;28;20029;-44
2021/01/19 05:23:46;;;;;;;11.35;6.70;;;4.20;99.90;;;;;;5031733;28;20032;-46
2021/01/19 05:26:16;;;;;;;10.80;7.75;;;4.20;99.90;;;;;;5028978;28;20027;-45
2021/01/19 05:28:46;;;;;;;;;;;4.20;99.90;;;;;;5031955;28;20288;-43
2021/01/19 05:31:15;;;;;;;12.60;7.40;;;4.20;99.90;;;;;;5031517;28;19973;-43
2021/01/19 05:33:55;;;;;;;11.40;7.18;;;4.20;99.90;;;;;;5031279;28;20029;-44
2021/01/19 05:36:23;;;;;;;13.18;8.15;;;4.20;99.90;;;;;;5029479;28;20033;-46
2021/01/19 05:38:50;;;;;;;12.85;7.28;;;4.20;99.90;;;;;;5031637;28;20045;-44
2021/01/19 05:41:29;;;;;;;12.80;7.15;;;4.20;99.90;;;;;;5030103;28;20112;-45
2021/01/19 05:43:55;;;;;;;10.20;7.32;;;4.20;99.90;;;;;;5030102;28;20041;-44
2021/01/19 05:46:28;;;;;;;10.57;6.80;;;4.20;99.90;;;;;;5028451;28;20025;-44
2021/01/19 05:49:03;;;;;;;14.52;7.18;;;4.20;99.90;;;;;;5031015;28;20017;-45
2021/01/19 05:51:30;;;;;;;10.63;6.85;;;4.10;99.90;;;;;;5028692;28;20431;-44
2021/01/19 05:53:57;;;;;;;10.93;6.28;;;4.20;99.90;;;;;;5030537;28;20021;-46
2021/01/19 05:56:23;;;;;;;7.53;5.40;;;4.20;99.90;;;;;;5029602;28;20021;-44
2021/01/19 05:58:50;;;;;;;9.23;5.60;;;4.20;99.90;;;;;;5031878;28;20034;-44
2021/01/19 06:01:29;;;;;;;7.97;5.47;;;4.20;99.90;;;;;;5032729;28;20025;-42
2021/01/19 06:04:00;;;;;;;9.00;5.60;;;4.20;99.90;;;;;;5031880;28;20025;-47
2021/01/19 06:06:27;;;;;;;8.43;5.60;;;4.20;99.90;;;;;;5031726;28;20075;-43
2021/01/19 06:09:04;;;;;;;9.02;5.20;;;4.20;99.90;;;;;;5032208;28;20617;-43
2021/01/19 06:11:30;;;;;;;8.65;5.13;;;4.20;99.90;;;;;;5031892;28;20444;-44
2021/01/19 06:13:57;;;;;;;6.65;4.88;;;4.20;99.90;;;;;;5028890;28;20093;-43
2021/01/19 06:16:25;;;;;;;7.28;5.20;;;4.20;99.90;;;;;;5029604;28;20029;-43
2021/01/19 06:18:52;;;;;;;8.48;5.45;;;4.20;99.90;;;;;;5029167;28;20108;-43
2021/01/19 06:21:35;;;;;;;7.80;5.40;;;4.30;99.90;;;;;;5031212;28;20107;-44
2021/01/19 06:24:01;;;;;;;6.75;4.85;;;4.30;99.90;;;;;;5032028;28;20041;-46
2021/01/19 06:26:27;;;;;;;5.57;4.28;;;4.30;99.90;;;;;;5029937;28;20029;-43
2021/01/19 06:28:53;;;;;;;8.38;4.88;;;4.30;99.90;;;;;;5031992;28;20049;-44
2021/01/19 06:31:22;;;;;;;5.97;4.30;;;4.30;99.90;;;;;;5025740;28;20030;-44
2021/01/19 06:33:50;;;;;;;7.18;4.45;;;4.40;99.90;;;;;;5031051;28;20097;-45
2021/01/19 06:36:17;;;;;;;6.38;4.28;;;4.40;99.90;;;;;;5030099;28;20379;-44
2021/01/19 06:38:47;;;;;;;7.47;4.13;;;4.50;99.90;;;;;;5029238;28;20059;-43
2021/01/19 06:41:18;;;;;;;8.13;4.45;;;4.50;99.90;;;;;;5029388;28;20025;-46
2021/01/19 06:43:50;;;;;;;;;;;4.50;99.90;;;;;;5029347;28;20037;-45
2021/01/19 06:46:18;;;;;;;9.05;4.75;;;4.50;99.90;;;;;;5024493;28;19967;-45
2021/01/19 06:48:45;;;;;;;5.45;3.53;;;4.50;99.90;;;;;;5027732;28;20112;-43
2021/01/19 06:51:11;;;;;;;8.40;3.92;;;4.50;99.90;;;;;;5029010;28;20033;-44
2021/01/19 06:53:52;;;;;;;9.82;4.10;;;4.50;99.90;;;;;;5029670;28;20021;-43
2021/01/19 06:56:25;;;;;;;8.07;4.40;;;4.60;99.90;;;;;;5026131;28;20061;-45
2021/01/19 06:58:52;;;;;;;9.80;4.82;;;4.60;99.90;;;;;;5029899;28;20017;-44
2021/01/19 07:01:21;;;;;;;7.65;4.05;;;4.60;99.90;;;;;;5029917;28;20497;-44
2021/01/19 07:03:48;;;;;;;17.48;4.22;;;4.60;99.90;;;;;;5030194;28;20022;-43
2021/01/19 07:06:16;;;;;;;5.50;3.40;;;4.70;99.90;;;;;;5028617;28;20047;-43
2021/01/19 07:09:41;;;;;;;11.40;3.85;;;4.70;99.90;;;;;;5029813;28;20020;-42
2021/01/19 07:12:08;;;;;;;10.95;4.15;;;4.70;99.90;;;;;;5010689;28;20057;-45
2021/01/19 07:14:42;;;;;;;7.18;3.80;;;4.70;99.90;;;;;;5030768;28;20021;-44
2021/01/19 07:17:10;;;;;;;6.97;3.40;;;4.70;99.90;;;;;;5030858;28;20578;-46
2021/01/19 07:19:47;;;;;;;9.38;3.60;;;4.70;99.90;;;;;;5023635;28;20033;-46
2021/01/19 07:22:29;;;;;;;10.55;4.03;;;4.70;99.90;;;;;;5030214;28;20033;-45
2021/01/19 07:24:55;;;;;;;7.80;3.80;;;4.60;99.90;;;;;;5029868;28;20438;-46
2021/01/19 07:27:24;;;;;;;9.80;3.50;;;4.50;99.90;;;;;;5029332;28;20040;-45
2021/01/19 07:29:50;;;;;;;11.27;4.75;;;4.50;99.90;;;;;;5030320;28;20479;-45
2021/01/19 07:32:24;;;;;;;8.95;4.35;;;4.40;99.90;;;;;;5028256;28;20030;-45
2021/01/19 07:34:50;;;;;;;8.48;3.60;;;4.40;99.90;;;;;;5025880;28;20005;-45
2021/01/19 07:37:16;;;;;;;9.23;3.88;;;4.30;99.90;;;;;;5027836;28;20717;-46
2021/01/19 07:39:41;;;;;;;6.75;3.20;;;4.30;99.90;;;;;;5029000;28;20044;-46
2021/01/19 07:42:15;;;;;;;7.82;3.95;;;4.20;99.90;;;;;;5027702;28;20040;-47
2021/01/19 07:44:42;;;;;;;11.40;4.13;;;4.20;99.90;;;;;;5029160;28;20536;-45
2021/01/19 07:47:12;;;;;;;8.95;3.35;;;4.10;99.90;;;;;;5027715;28;20030;-45
2021/01/19 07:49:38;;;;;;;11.75;3.45;;;4.10;99.90;;;;;;5016639;28;20427;-46
2021/01/19 07:52:14;;;;;;;8.40;3.67;;;4.00;99.90;;;;;;5030107;28;20087;-46
2021/01/19 07:54:41;;;;;;;12.10;3.88;;;4.10;99.90;;;;;;5027501;28;20021;-46
2021/01/19 07:57:13;;;;;;;7.30;3.90;;;4.00;99.90;;;;;;5029306;28;20055;-46
2021/01/19 07:59:39;;;;;;;10.25;3.67;;;4.00;99.90;;;;;;5028640;28;20033;-46
2021/01/19 08:02:05;;;;;;;14.63;3.55;;;3.90;99.90;;;;;;5027608;28;20029;-44
2021/01/19 08:04:39;;;;;;;10.05;3.63;;;3.90;99.90;;;;;;5026949;28;20397;-45
2021/01/19 08:07:12;;;;;;;11.75;3.58;;;3.90;99.90;;;;;;5027458;28;20520;-46
2021/01/19 08:09:38;;;;;;;7.68;3.53;;;3.90;99.90;;;;;;5027358;28;20397;-47
2021/01/19 08:12:08;;;;;;;11.40;3.40;;;3.80;99.90;;;;;;5026984;28;20029;-45
2021/01/19 08:14:39;;;;;;;9.38;4.15;;;3.80;99.90;;;;;;5026875;28;20029;-45
2021/01/19 08:17:05;;;;;;;10.52;3.75;;;3.80;99.90;;;;;;5027466;28;20117;-45
2021/01/19 08:19:40;;;;;;;6.38;3.90;;;3.70;99.90;;;;;;5027346;28;20516;-44
2021/01/19 08:22:06;;;;;;;16.17;4.90;;;3.70;99.90;;;;;;5027424;28;20525;-45
2021/01/19 08:24:32;;;;;;;15.27;4.28;;;3.70;99.90;;;;;;5026584;28;20515;-47
2021/01/19 08:26:58;;;;;;;12.68;4.53;;;3.60;99.90;;;;;;5027385;28;20060;-47
2021/01/19 08:29:24;;;;;;;10.93;4.72;;;3.60;99.90;;;;;;5027571;28;20053;-45
2021/01/19 08:31:58;;;;;;;11.32;3.92;;;3.60;99.90;;;;;;5027184;28;20017;-45
2021/01/19 08:34:26;;;;;;;13.48;5.63;;;3.50;99.90;;;;;;5026420;28;20076;-46
2021/01/19 08:36:53;;;;;;;10.15;4.63;;;3.50;99.90;;;;;;5027099;28;20502;-47
2021/01/19 08:39:19;;;;;;;14.65;5.03;;;3.50;99.90;;;;;;5026799;28;20033;-45
2021/01/19 08:41:49;;;;;;;14.45;4.60;;;3.40;99.90;;;;;;5027499;28;20034;-48
2021/01/19 08:44:15;;;;;;;12.57;4.75;;;3.40;99.90;;;;;;5029446;28;20044;-47
2021/01/19 08:46:42;;;;;;;13.23;5.03;;;3.40;99.90;;;;;;5031231;28;20087;-49
2021/01/19 08:49:10;;;;;;;14.60;6.18;;;3.40;99.90;;;;;;5031728;28;20586;-47
2021/01/19 08:51:37;;;;;;;13.90;5.93;;;3.40;99.90;;;;;;5031841;28;20053;-47
2021/01/19 08:54:08;;;;;;;52.60;8.25;;;3.30;99.90;;;;;;5029735;28;20022;-46
2021/01/19 08:56:36;;;;;;;;;;;3.40;99.90;;;;;;5030467;28;20018;-47
2021/01/19 08:59:02;;;;;;;15.65;5.72;;;3.40;99.90;;;;;;5031019;28;19905;-47
2021/01/19 09:01:27;;;;;;;13.07;5.05;;;3.40;99.90;;;;;;5031069;28;20345;-46
2021/01/19 09:03:58;;;;;;;18.23;6.15;;;3.40;99.90;;;;;;5031272;28;20536;-47
2021/01/19 09:06:24;;;;;;;14.70;6.78;;;3.40;99.90;;;;;;5030454;28;20038;-46
2021/01/19 09:08:56;;;;;;;16.05;5.38;;;3.30;99.90;;;;;;5030866;28;20082;-49
2021/01/19 09:11:32;;;;;;;20.27;7.22;;;3.40;99.90;;;;;;5031425;28;20136;-45
2021/01/19 09:14:08;;;;;;;17.23;5.72;;;3.40;99.90;;;;;;5030658;28;20108;-46
2021/01/19 09:16:38;;;;;;;13.70;5.95;;;3.40;99.90;;;;;;5031272;28;20518;-47
2021/01/19 09:19:07;;;;;;;17.85;5.80;;;3.40;99.90;;;;;;5047339;28;20063;-46
2021/01/19 09:21:33;;;;;;;14.60;5.35;;;3.40;99.90;;;;;;5054557;28;20227;-47
2021/01/19 09:23:59;;;;;;;18.17;5.03;;;3.40;99.90;;;;;;5050206;28;20025;-46
2021/01/19 09:26:25;;;;;;;14.52;6.20;;;3.40;99.90;;;;;;5049302;28;20466;-46
2021/01/19 09:28:51;;;;;;;13.57;5.60;;;3.30;99.90;;;;;;5050193;28;20100;-45
2021/01/19 09:31:23;;;;;;;18.35;5.40;;;3.30;99.90;;;;;;5050579;28;20045;-49
2021/01/19 09:33:51;;;;;;;15.13;6.03;;;3.30;99.90;;;;;;5050594;28;20056;-47
2021/01/19 09:36:17;;;;;;;15.77;6.30;;;3.30;99.90;;;;;;5044379;28;20053;-47
2021/01/19 09:38:46;;;;;;;14.93;6.65;;;3.30;99.90;;;;;;5050146;28;20064;-46
2021/01/19 09:41:17;;;;;;;11.05;6.10;;;3.30;99.90;;;;;;5049892;28;20150;-47
2021/01/19 09:43:50;;;;;;;11.50;5.45;;;3.30;99.90;;;;;;5049583;28;20021;-45
2021/01/19 09:46:21;;;;;;;9.18;5.05;;;3.30;99.90;;;;;;5049354;28;20363;-48
2021/01/19 09:48:48;;;;;;;10.27;5.35;;;3.40;99.90;;;;;;5050709;28;20032;-45
2021/01/19 09:51:14;;;;;;;18.80;5.95;;;3.40;99.90;;;;;;5050082;28;20557;-45
2021/01/19 09:53:40;;;;;;;13.70;6.10;;;3.30;99.90;;;;;;5049277;28;20120;-45
2021/01/19 09:56:16;;;;;;;15.90;5.32;;;3.40;99.90;;;;;;5048876;28;20439;-46
2021/01/19 09:58:42;;;;;;;11.57;5.05;;;3.40;99.90;;;;;;5049695;28;20032;-46
2021/01/19 10:01:07;;;;;;;12.98;5.07;;;3.50;99.90;;;;;;5050000;28;20025;-48
2021/01/19 10:03:35;;;;;;;12.57;5.00;;;3.50;99.90;;;;;;5049785;28;20079;-45
2021/01/19 10:06:08;;;;;;;18.00;5.55;;;3.50;99.90;;;;;;5049533;28;20082;-46
2021/01/19 10:08:37;;;;;;;14.18;5.40;;;3.50;99.90;;;;;;5049811;28;20021;-45
2021/01/19 10:11:04;;;;;;;7.53;4.60;;;3.50;99.90;;;;;;5049655;28;20048;-45
2021/01/19 10:13:31;;;;;;;11.65;5.97;;;3.50;99.90;;;;;;5049796;28;20023;-45
2021/01/19 10:15:59;;;;;;;11.88;4.65;;;3.50;99.90;;;;;;5047918;28;20028;-46
2021/01/19 10:18:24;;;;;;;9.88;5.22;;;3.50;99.90;;;;;;5048559;28;20056;-46
2021/01/19 10:20:50;;;;;;;11.35;4.97;;;3.50;99.90;;;;;;5047692;28;20033;-45
2021/01/19 10:23:26;;;;;;;11.25;5.82;;;3.40;99.90;;;;;;5028967;28;20045;-45
2021/01/19 10:26:09;;;;;;;13.02;5.32;;;3.40;99.90;;;;;;5028296;28;20029;-45
2021/01/19 10:28:44;;;;;;;12.52;5.55;;;3.40;99.90;;;;;;5008869;28;20491;-46
2021/01/19 10:31:22;;;;;;;11.88;5.50;;;3.40;99.90;;;;;;5010131;28;20398;-45
2021/01/19 10:34:02;;;;;;;15.80;6.05;;;3.40;99.90;;;;;;5008567;28;20026;-46
2021/01/19 10:36:29;;;;;;;;;;;3.30;99.90;;;;;;5010002;28;20033;-47
2021/01/19 10:39:05;;;;;;;10.55;5.30;;;3.30;99.90;;;;;;5009360;28;19909;-44
2021/01/19 10:41:31;;;;;;;9.85;5.72;;;3.30;99.90;;;;;;5023604;28;20029;-45
2021/01/19 10:43:57;;;;;;;9.77;5.70;;;3.30;99.90;;;;;;5027567;28;20045;-46
2021/01/19 10:46:25;;;;;;;10.40;5.45;;;3.30;99.90;;;;;;5012807;28;20113;-46
2021/01/19 10:49:02;;;;;;;12.75;5.90;;;3.30;99.90;;;;;;5008334;28;20609;-46
2021/01/19 10:51:28;;;;;;;11.45;5.82;;;3.30;99.90;;;;;;5008560;28;20068;-45
2021/01/19 10:54:03;;;;;;;13.98;4.97;;;3.30;99.90;;;;;;5011686;28;20334;-45
2021/01/19 10:56:29;;;;;;;9.80;5.28;;;3.40;99.90;;;;;;5028440;28;20053;-49
2021/01/19 10:58:54;;;;;;;11.25;5.63;;;3.30;99.90;;;;;;5028861;28;20061;-45
2021/01/19 11:01:20;;;;;;;9.32;4.78;;;3.30;99.90;;;;;;5029327;28;20025;-46
2021/01/19 11:03:46;;;;;;;8.15;5.05;;;3.30;99.90;;;;;;5029027;28;20033;-46
2021/01/19 11:06:13;;;;;;;8.88;5.60;;;3.30;99.90;;;;;;5027166;28;20033;-45
2021/01/19 11:08:38;;;;;;;15.65;5.97;;;3.40;99.90;;;;;;5028992;28;20108;-46
2021/01/19 11:11:04;;;;;;;10.38;5.65;;;3.40;99.90;;;;;;5029086;28;20116;-47
2021/01/19 11:13:29;;;;;;;14.80;5.88;;;3.30;99.90;;;;;;5028744;28;20044;-46
2021/01/19 11:15:55;;;;;;;9.10;5.45;;;3.40;99.90;;;;;;5028315;28;20229;-45
2021/01/19 11:18:20;;;;;;;9.20;4.95;;;3.30;99.90;;;;;;5029201;28;20026;-46
2021/01/19 11:20:46;;;;;;;8.25;4.53;;;3.40;99.90;;;;;;5028824;28;20398;-48
2021/01/19 11:23:11;;;;;;;15.30;5.40;;;3.50;99.90;;;;;;5028892;28;20041;-46
2021/01/19 11:25:37;;;;;;;8.23;4.45;;;3.50;99.90;;;;;;5027914;28;20116;-43
2021/01/19 11:28:02;;;;;;;9.45;4.85;;;3.50;99.90;;;;;;5028350;28;20403;-45
2021/01/19 11:30:28;;;;;;;9.95;5.03;;;3.50;99.90;;;;;;5028745;28;20200;-45
2021/01/19 11:32:54;;;;;;;15.43;4.45;;;3.60;99.90;;;;;;5028857;28;20041;-45
2021/01/19 11:35:19;;;;;;;8.52;5.03;;;3.60;99.90;;;;;;5028057;28;20064;-44
2021/01/19 11:37:45;;;;;;;9.02;4.45;;;3.60;99.90;;;;;;5028356;28;20372;-46
2021/01/19 11:40:10;;;;;;;10.30;5.00;;;3.70;99.90;;;;;;5028200;28;20030;-45
2021/01/19 11:42:36;;;;;;;8.25;5.07;;;3.70;99.90;;;;;;5027161;28;20052;-45
2021/01/19 11:45:03;;;;;;;8.43;3.95;;;3.70;99.90;;;;;;5026097;28;20032;-45
2021/01/19 11:47:29;;;;;;;8.82;4.47;;;3.80;99.90;;;;;;5028236;28;20029;-47
2021/01/19 11:49:54;;;;;;;5.57;3.97;;;3.80;99.90;;;;;;5027671;28;20078;-45
2021/01/19 11:52:20;;;;;;;7.82;3.88;;;3.70;99.90;;;;;;5027880;28;20029;-45
2021/01/19 11:54:46;;;;;;;7.28;3.92;;;3.80;99.90;;;;;;5026380;28;20176;-44
2021/01/19 11:57:12;;;;;;;5.82;3.90;;;3.80;99.90;;;;;;5027899;28;21245;-45
2021/01/19 11:59:38;;;;;;;6.28;4.30;;;3.90;99.90;;;;;;5028148;28;20028;-45
2021/01/19 12:02:04;;;;;;;5.93;4.25;;;3.90;99.90;;;;;;5028294;28;20479;-45
2021/01/19 12:04:29;;;;;;;6.35;4.70;;;3.80;99.90;;;;;;5027678;28;20128;-45
2021/01/19 12:06:55;;;;;;;8.63;4.25;;;3.80;99.90;;;;;;5027420;28;20021;-44
2021/01/19 12:09:22;;;;;;;7.63;4.15;;;3.80;99.90;;;;;;5027005;28;20100;-45
2021/01/19 12:11:54;;;;;;;7.10;4.20;;;3.70;99.90;;;;;;5026679;28;20068;-44
2021/01/19 12:14:20;;;;;;;6.60;4.10;;;3.80;99.90;;;;;;5026849;28;20014;-47
2021/01/19 12:16:46;;;;;;;6.22;3.70;;;3.70;99.90;;;;;;5026626;28;20352;-45
2021/01/19 12:19:12;;;;;;;6.43;3.17;;;3.80;99.90;;;;;;5027456;28;20039;-46
2021/01/19 12:21:49;;;;;;;6.30;3.95;;;3.80;99.90;;;;;;5026709;28;20125;-44
2021/01/19 12:24:15;;;;;;;3.72;3.08;;;3.90;99.90;;;;;;5024865;28;20088;-45
2021/01/19 12:26:44;;;;;;;2.88;2.53;;;3.90;99.90;;;;;;5021743;28;20102;-45
2021/01/19 12:29:09;;;;;;;3.15;2.40;;;3.90;99.90;;;;;;5026128;28;20068;-48
2021/01/19 12:31:35;;;;;;;3.50;2.38;;;4.00;99.90;;;;;;5026340;28;20018;-45
2021/01/19 12:34:00;;;;;;;4.40;2.67;;;4.00;99.90;;;;;;5021829;28;20116;-45
2021/01/19 12:36:27;;;;;;;4.45;2.10;;;4.00;99.90;;;;;;5022040;28;20120;-45
2021/01/19 12:38:53;;;;;;;4.82;3.75;;;3.90;99.90;;;;;;5026663;28;20033;-45
2021/01/19 12:41:19;;;;;;;5.43;2.53;;;3.80;99.90;;;;;;5026109;28;20040;-45
2021/01/19 12:43:45;;;;;;;5.75;2.78;;;3.90;99.90;;;;;;5026317;28;20033;-45
2021/01/19 12:46:12;;;;;;;3.33;2.10;;;3.90;99.90;;;;;;5025963;28;20026;-45
2021/01/19 12:48:38;;;;;;;2.58;2.00;;;3.90;99.90;;;;;;5027079;28;20022;-46
2021/01/19 12:51:04;;;;;;;3.53;2.25;;;3.80;99.90;;;;;;5026763;28;20022;-44
2021/01/19 12:53:30;;;;;;;3.17;2.40;;;3.80;99.90;;;;;;5026402;28;20014;-45
2021/01/19 12:55:55;;;;;;;4.15;2.33;;;3.90;99.90;;;;;;5025278;28;20037;-46
2021/01/19 12:58:21;;;;;;;2.80;2.38;;;3.90;99.90;;;;;;5024794;28;20037;-45